sensor_id;sensor_type;location;lat;lon;timestamp;P1;durP1;ratioP1;P2;durP2;ratioP2
14984;SDS011;7588;62.368;25.902;2023-08-30T00:00:51;3.58;;;2.03;;
14984;SDS011;7588;62.368;25.902;2023-08-30T00:03:18;4.30;;;2.03;;
14984;SDS011;7588;62.368;25.902;2023-08-30T00:05:43;4.93;;;2.10;;
14984;SDS011;7588;62.368;25.902;2023-08-30T00:08:08;5.10;;;2.22;;
14984;SDS011;7588;62.368;25.902;2023-08-30T00:10:34;4.00;;;1.65;;
14984;SDS011;7588;62.368;25.902;2023-08-30T00:13:00;2.97;;;1.88;;
14984;SDS011;7588;62.368;25.902;2023-08-30T00:15:25;3.10;;;2.00;;
14984;SDS011;7588;62.368;25.902;2023-08-30T00:17:51;4.97;;;2.03;;
14984;SDS011;7588;62.368;25.902;2023-08-30T00:20:19;3.53;;;1.90;;
14984;SDS011;7588;62.368;25.902;2023-08-30T00:22:45;3.38;;;2.10;;
14984;SDS011;7588;62.368;25.902;2023-08-30T00:25:10;3.20;;;2.13;;
14984;SDS011;7588;62.368;25.902;2023-08-30T00:27:36;3.13;;;1.92;;
14984;SDS011;7588;62.368;25.902;2023-08-30T00:30:01;13.13;;;2.42;;
14984;SDS011;7588;62.368;25.902;2023-08-30T00:32:27;3.85;;;1.73;;
14984;SDS011;7588;62.368;25.902;2023-08-30T00:34:52;3.30;;;2.05;;
14984;SDS011;7588;62.368;25.902;2023-08-30T00:37:17;2.90;;;1.80;;
14984;SDS011;7588;62.368;25.902;2023-08-30T00:39:43;2.90;;;1.42;;
14984;SDS011;7588;62.368;25.902;2023-08-30T00:42:08;4.07;;;2.03;;
14984;SDS011;7588;62.368;25.902;2023-08-30T00:44:34;3.17;;;2.08;;
14984;SDS011;7588;62.368;25.902;2023-08-30T00:47:00;5.13;;;2.10;;
14984;SDS011;7588;62.368;25.902;2023-08-30T00:49:26;3.65;;;2.13;;
14984;SDS011;7588;62.368;25.902;2023-08-30T00:51:52;3.35;;;2.13;;
14984;SDS011;7588;62.368;25.902;2023-08-30T00:54:19;4.18;;;2.63;;
14984;SDS011;7588;62.368;25.902;2023-08-30T00:56:44;4.13;;;2.28;;
14984;SDS011;7588;62.368;25.902;2023-08-30T00:59:11;2.90;;;2.10;;
14984;SDS011;7588;62.368;25.902;2023-08-30T01:01:37;2.72;;;1.83;;
14984;SDS011;7588;62.368;25.902;2023-08-30T01:04:04;2.97;;;1.67;;
14984;SDS011;7588;62.368;25.902;2023-08-30T01:06:29;3.53;;;2.17;;
14984;SDS011;7588;62.368;25.902;2023-08-30T01:08:55;3.75;;;1.80;;
14984;SDS011;7588;62.368;25.902;2023-08-30T01:16:34;2.63;;;1.77;;
14984;SDS011;7588;62.368;25.902;2023-08-30T01:19:01;4.22;;;1.65;;
14984;SDS011;7588;62.368;25.902;2023-08-30T01:24:39;8.43;;;2.88;;
14984;SDS011;7588;62.368;25.902;2023-08-30T01:27:22;7.15;;;2.72;;
14984;SDS011;7588;62.368;25.902;2023-08-30T01:29:49;4.78;;;2.33;;
14984;SDS011;7588;62.368;25.902;2023-08-30T01:32:15;6.35;;;2.35;;
14984;SDS011;7588;62.368;25.902;2023-08-30T01:34:40;5.10;;;2.45;;
14984;SDS011;7588;62.368;25.902;2023-08-30T01:37:07;4.75;;;2.28;;
14984;SDS011;7588;62.368;25.902;2023-08-30T01:39:34;5.97;;;2.42;;
14984;SDS011;7588;62.368;25.902;2023-08-30T01:42:02;6.90;;;2.33;;
14984;SDS011;7588;62.368;25.902;2023-08-30T01:44:28;11.50;;;2.72;;
14984;SDS011;7588;62.368;25.902;2023-08-30T01:46:54;8.10;;;3.42;;
14984;SDS011;7588;62.368;25.902;2023-08-30T01:49:21;14.13;;;3.00;;
14984;SDS011;7588;62.368;25.902;2023-08-30T01:51:47;3.90;;;2.33;;
14984;SDS011;7588;62.368;25.902;2023-08-30T01:54:14;6.05;;;3.30;;
14984;SDS011;7588;62.368;25.902;2023-08-30T01:56:43;10.27;;;3.20;;
14984;SDS011;7588;62.368;25.902;2023-08-30T01:59:08;11.77;;;3.30;;
14984;SDS011;7588;62.368;25.902;2023-08-30T02:01:34;9.25;;;3.67;;
14984;SDS011;7588;62.368;25.902;2023-08-30T02:03:59;7.10;;;3.17;;
14984;SDS011;7588;62.368;25.902;2023-08-30T02:06:48;6.60;;;3.50;;
14984;SDS011;7588;62.368;25.902;2023-08-30T02:09:20;5.13;;;2.70;;
14984;SDS011;7588;62.368;25.902;2023-08-30T02:11:50;6.22;;;3.03;;
14984;SDS011;7588;62.368;25.902;2023-08-30T02:14:16;10.13;;;2.95;;
14984;SDS011;7588;62.368;25.902;2023-08-30T02:16:43;14.30;;;3.55;;
14984;SDS011;7588;62.368;25.902;2023-08-30T02:19:10;6.15;;;2.92;;
14984;SDS011;7588;62.368;25.902;2023-08-30T02:21:36;10.65;;;2.92;;
14984;SDS011;7588;62.368;25.902;2023-08-30T02:24:02;9.75;;;2.70;;
14984;SDS011;7588;62.368;25.902;2023-08-30T02:26:28;16.58;;;3.95;;
14984;SDS011;7588;62.368;25.902;2023-08-30T02:28:53;5.43;;;2.75;;
14984;SDS011;7588;62.368;25.902;2023-08-30T02:31:19;5.57;;;2.05;;
14984;SDS011;7588;62.368;25.902;2023-08-30T02:33:44;8.77;;;3.17;;
14984;SDS011;7588;62.368;25.902;2023-08-30T02:36:09;8.73;;;2.83;;
14984;SDS011;7588;62.368;25.902;2023-08-30T02:38:35;4.43;;;2.10;;
14984;SDS011;7588;62.368;25.902;2023-08-30T02:41:01;5.30;;;2.28;;
14984;SDS011;7588;62.368;25.902;2023-08-30T02:43:26;5.32;;;2.35;;
14984;SDS011;7588;62.368;25.902;2023-08-30T02:45:51;5.55;;;2.67;;
14984;SDS011;7588;62.368;25.902;2023-08-30T02:48:17;7.00;;;2.40;;
14984;SDS011;7588;62.368;25.902;2023-08-30T02:50:43;5.07;;;2.42;;
14984;SDS011;7588;62.368;25.902;2023-08-30T02:53:08;8.10;;;2.70;;
14984;SDS011;7588;62.368;25.902;2023-08-30T02:55:34;4.97;;;1.95;;
14984;SDS011;7588;62.368;25.902;2023-08-30T02:58:00;15.20;;;4.35;;
14984;SDS011;7588;62.368;25.902;2023-08-30T03:00:25;3.55;;;1.83;;
14984;SDS011;7588;62.368;25.902;2023-08-30T03:02:51;5.13;;;2.38;;
14984;SDS011;7588;62.368;25.902;2023-08-30T03:05:17;4.68;;;2.00;;
14984;SDS011;7588;62.368;25.902;2023-08-30T03:07:42;5.80;;;2.70;;
14984;SDS011;7588;62.368;25.902;2023-08-30T03:10:08;4.78;;;2.55;;
14984;SDS011;7588;62.368;25.902;2023-08-30T03:12:34;4.32;;;2.10;;
14984;SDS011;7588;62.368;25.902;2023-08-30T03:15:00;7.38;;;3.42;;
14984;SDS011;7588;62.368;25.902;2023-08-30T03:17:25;5.35;;;2.95;;
14984;SDS011;7588;62.368;25.902;2023-08-30T03:19:53;7.00;;;2.65;;
14984;SDS011;7588;62.368;25.902;2023-08-30T03:22:19;6.10;;;3.25;;
14984;SDS011;7588;62.368;25.902;2023-08-30T03:24:44;7.78;;;3.58;;
14984;SDS011;7588;62.368;25.902;2023-08-30T03:27:10;5.97;;;3.33;;
14984;SDS011;7588;62.368;25.902;2023-08-30T03:29:35;9.10;;;3.00;;
14984;SDS011;7588;62.368;25.902;2023-08-30T03:32:01;12.15;;;3.72;;
14984;SDS011;7588;62.368;25.902;2023-08-30T03:34:26;8.32;;;4.00;;
14984;SDS011;7588;62.368;25.902;2023-08-30T03:36:52;24.60;;;3.90;;
14984;SDS011;7588;62.368;25.902;2023-08-30T03:39:20;19.55;;;3.88;;
14984;SDS011;7588;62.368;25.902;2023-08-30T03:41:45;13.32;;;3.50;;
14984;SDS011;7588;62.368;25.902;2023-08-30T03:44:11;7.47;;;3.03;;
14984;SDS011;7588;62.368;25.902;2023-08-30T03:46:36;94.20;;;8.05;;
14984;SDS011;7588;62.368;25.902;2023-08-30T03:49:02;33.20;;;4.55;;
14984;SDS011;7588;62.368;25.902;2023-08-30T03:51:28;61.92;;;6.65;;
14984;SDS011;7588;62.368;25.902;2023-08-30T03:53:54;12.77;;;2.70;;
14984;SDS011;7588;62.368;25.902;2023-08-30T03:56:21;6.53;;;3.22;;
14984;SDS011;7588;62.368;25.902;2023-08-30T03:58:47;53.47;;;6.57;;
14984;SDS011;7588;62.368;25.902;2023-08-30T04:01:12;116.57;;;8.77;;
14984;SDS011;7588;62.368;25.902;2023-08-30T04:03:37;91.78;;;8.48;;
14984;SDS011;7588;62.368;25.902;2023-08-30T04:06:03;111.18;;;10.93;;
14984;SDS011;7588;62.368;25.902;2023-08-30T04:08:28;33.85;;;4.22;;
14984;SDS011;7588;62.368;25.902;2023-08-30T04:10:54;55.20;;;5.47;;
14984;SDS011;7588;62.368;25.902;2023-08-30T04:13:19;43.42;;;5.40;;
14984;SDS011;7588;62.368;25.902;2023-08-30T04:15:44;45.92;;;4.65;;
14984;SDS011;7588;62.368;25.902;2023-08-30T04:18:10;48.15;;;6.78;;
14984;SDS011;7588;62.368;25.902;2023-08-30T04:20:35;9.07;;;2.92;;
14984;SDS011;7588;62.368;25.902;2023-08-30T04:23:01;117.45;;;9.85;;
14984;SDS011;7588;62.368;25.902;2023-08-30T04:25:27;41.17;;;5.93;;
14984;SDS011;7588;62.368;25.902;2023-08-30T04:27:56;42.53;;;5.43;;
14984;SDS011;7588;62.368;25.902;2023-08-30T04:30:21;15.82;;;3.42;;
14984;SDS011;7588;62.368;25.902;2023-08-30T04:32:47;185.07;;;14.70;;
14984;SDS011;7588;62.368;25.902;2023-08-30T04:35:12;138.88;;;8.90;;
14984;SDS011;7588;62.368;25.902;2023-08-30T04:37:37;39.42;;;4.60;;
14984;SDS011;7588;62.368;25.902;2023-08-30T04:40:05;62.72;;;7.25;;
14984;SDS011;7588;62.368;25.902;2023-08-30T04:42:34;41.78;;;6.07;;
14984;SDS011;7588;62.368;25.902;2023-08-30T04:45:00;44.17;;;5.15;;
14984;SDS011;7588;62.368;25.902;2023-08-30T04:47:27;28.75;;;3.35;;
14984;SDS011;7588;62.368;25.902;2023-08-30T04:49:54;95.25;;;7.57;;
14984;SDS011;7588;62.368;25.902;2023-08-30T04:52:19;77.07;;;7.28;;
14984;SDS011;7588;62.368;25.902;2023-08-30T04:54:45;35.42;;;3.53;;
14984;SDS011;7588;62.368;25.902;2023-08-30T04:57:11;64.82;;;5.30;;
14984;SDS011;7588;62.368;25.902;2023-08-30T04:59:39;40.85;;;3.75;;
14984;SDS011;7588;62.368;25.902;2023-08-30T05:02:05;8.45;;;1.58;;
14984;SDS011;7588;62.368;25.902;2023-08-30T05:04:30;43.35;;;3.92;;
14984;SDS011;7588;62.368;25.902;2023-08-30T05:06:56;22.00;;;1.98;;
14984;SDS011;7588;62.368;25.902;2023-08-30T05:09:21;2.17;;;1.23;;
14984;SDS011;7588;62.368;25.902;2023-08-30T05:11:50;1.50;;;1.23;;
14984;SDS011;7588;62.368;25.902;2023-08-30T05:14:19;33.00;;;2.13;;
14984;SDS011;7588;62.368;25.902;2023-08-30T05:16:44;47.10;;;2.83;;
14984;SDS011;7588;62.368;25.902;2023-08-30T05:19:10;31.27;;;3.55;;
14984;SDS011;7588;62.368;25.902;2023-08-30T05:21:36;37.50;;;2.13;;
14984;SDS011;7588;62.368;25.902;2023-08-30T05:24:01;29.05;;;2.03;;
14984;SDS011;7588;62.368;25.902;2023-08-30T05:26:27;8.15;;;0.47;;
14984;SDS011;7588;62.368;25.902;2023-08-30T05:28:53;32.45;;;2.40;;
14984;SDS011;7588;62.368;25.902;2023-08-30T05:31:18;8.13;;;0.75;;
14984;SDS011;7588;62.368;25.902;2023-08-30T05:33:44;11.43;;;1.10;;
14984;SDS011;7588;62.368;25.902;2023-08-30T05:36:09;33.28;;;1.85;;
14984;SDS011;7588;62.368;25.902;2023-08-30T05:38:34;17.65;;;1.60;;
14984;SDS011;7588;62.368;25.902;2023-08-30T05:41:00;10.45;;;1.00;;
14984;SDS011;7588;62.368;25.902;2023-08-30T05:43:25;0.98;;;0.30;;
14984;SDS011;7588;62.368;25.902;2023-08-30T05:45:51;5.88;;;0.80;;
14984;SDS011;7588;62.368;25.902;2023-08-30T05:48:16;22.00;;;1.65;;
14984;SDS011;7588;62.368;25.902;2023-08-30T05:50:41;15.05;;;1.23;;
14984;SDS011;7588;62.368;25.902;2023-08-30T05:53:07;1.88;;;0.40;;
14984;SDS011;7588;62.368;25.902;2023-08-30T05:55:32;2.17;;;0.43;;
14984;SDS011;7588;62.368;25.902;2023-08-30T05:57:58;8.48;;;0.93;;
14984;SDS011;7588;62.368;25.902;2023-08-30T06:00:23;43.45;;;2.63;;
14984;SDS011;7588;62.368;25.902;2023-08-30T06:02:50;5.93;;;0.52;;
14984;SDS011;7588;62.368;25.902;2023-08-30T06:05:16;15.32;;;1.10;;
14984;SDS011;7588;62.368;25.902;2023-08-30T06:07:41;1.40;;;0.43;;
14984;SDS011;7588;62.368;25.902;2023-08-30T06:10:07;0.80;;;0.50;;
14984;SDS011;7588;62.368;25.902;2023-08-30T06:12:33;1.67;;;0.32;;
14984;SDS011;7588;62.368;25.902;2023-08-30T06:14:58;1.17;;;0.57;;
14984;SDS011;7588;62.368;25.902;2023-08-30T06:17:24;1.08;;;0.60;;
14984;SDS011;7588;62.368;25.902;2023-08-30T06:19:49;2.17;;;0.52;;
14984;SDS011;7588;62.368;25.902;2023-08-30T06:22:14;3.65;;;0.50;;
14984;SDS011;7588;62.368;25.902;2023-08-30T06:24:40;6.35;;;2.35;;
14984;SDS011;7588;62.368;25.902;2023-08-30T06:27:05;1.67;;;0.40;;
14984;SDS011;7588;62.368;25.902;2023-08-30T06:29:31;0.68;;;0.28;;
14984;SDS011;7588;62.368;25.902;2023-08-30T06:31:57;1.25;;;0.40;;
14984;SDS011;7588;62.368;25.902;2023-08-30T06:34:23;0.60;;;0.25;;
14984;SDS011;7588;62.368;25.902;2023-08-30T06:36:48;0.68;;;0.30;;
14984;SDS011;7588;62.368;25.902;2023-08-30T06:39:14;0.80;;;0.30;;
14984;SDS011;7588;62.368;25.902;2023-08-30T06:41:39;0.68;;;0.30;;
14984;SDS011;7588;62.368;25.902;2023-08-30T06:44:04;1.17;;;0.60;;
14984;SDS011;7588;62.368;25.902;2023-08-30T06:46:30;1.60;;;0.30;;
14984;SDS011;7588;62.368;25.902;2023-08-30T06:48:56;1.02;;;0.30;;
14984;SDS011;7588;62.368;25.902;2023-08-30T06:51:21;1.38;;;0.40;;
14984;SDS011;7588;62.368;25.902;2023-08-30T06:53:46;0.70;;;0.30;;
14984;SDS011;7588;62.368;25.902;2023-08-30T06:56:12;0.73;;;0.30;;
14984;SDS011;7588;62.368;25.902;2023-08-30T06:58:37;0.98;;;0.40;;
14984;SDS011;7588;62.368;25.902;2023-08-30T07:01:03;0.60;;;0.30;;
14984;SDS011;7588;62.368;25.902;2023-08-30T07:03:28;1.63;;;0.40;;
14984;SDS011;7588;62.368;25.902;2023-08-30T07:05:54;1.00;;;0.20;;
14984;SDS011;7588;62.368;25.902;2023-08-30T07:08:19;0.52;;;0.20;;
14984;SDS011;7588;62.368;25.902;2023-08-30T07:10:45;0.68;;;0.40;;
14984;SDS011;7588;62.368;25.902;2023-08-30T07:13:10;0.50;;;0.20;;
14984;SDS011;7588;62.368;25.902;2023-08-30T07:15:37;1.05;;;0.90;;
14984;SDS011;7588;62.368;25.902;2023-08-30T07:18:06;1.50;;;0.40;;
14984;SDS011;7588;62.368;25.902;2023-08-30T07:20:32;0.75;;;0.22;;
14984;SDS011;7588;62.368;25.902;2023-08-30T07:22:58;0.90;;;0.38;;
14984;SDS011;7588;62.368;25.902;2023-08-30T07:25:23;0.40;;;0.13;;
14984;SDS011;7588;62.368;25.902;2023-08-30T07:27:49;0.50;;;0.08;;
14984;SDS011;7588;62.368;25.902;2023-08-30T07:30:14;0.93;;;0.10;;
14984;SDS011;7588;62.368;25.902;2023-08-30T07:32:40;0.40;;;0.10;;
14984;SDS011;7588;62.368;25.902;2023-08-30T07:35:06;0.60;;;0.10;;
14984;SDS011;7588;62.368;25.902;2023-08-30T07:37:31;0.40;;;0.10;;
14984;SDS011;7588;62.368;25.902;2023-08-30T07:39:57;0.82;;;0.10;;
14984;SDS011;7588;62.368;25.902;2023-08-30T07:42:22;0.50;;;0.32;;
14984;SDS011;7588;62.368;25.902;2023-08-30T07:44:48;0.40;;;0.10;;
14984;SDS011;7588;62.368;25.902;2023-08-30T07:47:13;0.45;;;0.13;;
14984;SDS011;7588;62.368;25.902;2023-08-30T07:49:38;0.30;;;0.10;;
14984;SDS011;7588;62.368;25.902;2023-08-30T07:52:04;0.52;;;0.10;;
14984;SDS011;7588;62.368;25.902;2023-08-30T07:54:30;0.60;;;0.10;;
14984;SDS011;7588;62.368;25.902;2023-08-30T07:56:56;0.60;;;0.10;;
14984;SDS011;7588;62.368;25.902;2023-08-30T07:59:21;0.40;;;0.20;;
14984;SDS011;7588;62.368;25.902;2023-08-30T08:01:47;1.02;;;0.20;;
14984;SDS011;7588;62.368;25.902;2023-08-30T08:04:12;0.35;;;0.10;;
14984;SDS011;7588;62.368;25.902;2023-08-30T08:06:37;0.40;;;0.22;;
14984;SDS011;7588;62.368;25.902;2023-08-30T08:09:03;0.22;;;0.00;;
14984;SDS011;7588;62.368;25.902;2023-08-30T08:11:29;0.40;;;0.10;;
14984;SDS011;7588;62.368;25.902;2023-08-30T08:13:55;0.40;;;0.10;;
14984;SDS011;7588;62.368;25.902;2023-08-30T08:16:20;0.22;;;0.10;;
14984;SDS011;7588;62.368;25.902;2023-08-30T08:18:45;0.40;;;0.13;;
14984;SDS011;7588;62.368;25.902;2023-08-30T08:21:11;0.47;;;0.10;;
14984;SDS011;7588;62.368;25.902;2023-08-30T08:23:36;0.40;;;0.10;;
14984;SDS011;7588;62.368;25.902;2023-08-30T08:26:01;0.73;;;0.10;;
14984;SDS011;7588;62.368;25.902;2023-08-30T08:28:30;0.40;;;0.10;;
14984;SDS011;7588;62.368;25.902;2023-08-30T08:30:55;0.63;;;0.20;;
14984;SDS011;7588;62.368;25.902;2023-08-30T08:33:21;0.40;;;0.10;;
14984;SDS011;7588;62.368;25.902;2023-08-30T08:35:48;0.20;;;0.10;;
14984;SDS011;7588;62.368;25.902;2023-08-30T08:38:14;0.40;;;0.10;;
14984;SDS011;7588;62.368;25.902;2023-08-30T08:40:39;0.30;;;0.10;;
14984;SDS011;7588;62.368;25.902;2023-08-30T08:43:05;0.35;;;0.20;;
14984;SDS011;7588;62.368;25.902;2023-08-30T08:45:34;0.40;;;0.13;;
14984;SDS011;7588;62.368;25.902;2023-08-30T08:48:01;0.30;;;0.10;;
14984;SDS011;7588;62.368;25.902;2023-08-30T08:50:28;0.30;;;0.10;;
14984;SDS011;7588;62.368;25.902;2023-08-30T08:52:56;0.90;;;0.35;;
14984;SDS011;7588;62.368;25.902;2023-08-30T08:55:22;0.50;;;0.35;;
14984;SDS011;7588;62.368;25.902;2023-08-30T08:57:48;0.30;;;0.10;;
14984;SDS011;7588;62.368;25.902;2023-08-30T09:00:14;0.82;;;0.35;;
14984;SDS011;7588;62.368;25.902;2023-08-30T09:02:41;1.10;;;0.70;;
14984;SDS011;7588;62.368;25.902;2023-08-30T09:05:07;0.60;;;0.20;;
14984;SDS011;7588;62.368;25.902;2023-08-30T09:07:33;0.17;;;0.00;;
14984;SDS011;7588;62.368;25.902;2023-08-30T09:09:59;0.32;;;0.32;;
14984;SDS011;7588;62.368;25.902;2023-08-30T09:12:25;0.30;;;0.00;;
14984;SDS011;7588;62.368;25.902;2023-08-30T09:14:54;0.68;;;0.20;;
14984;SDS011;7588;62.368;25.902;2023-08-30T09:17:20;0.20;;;0.10;;
14984;SDS011;7588;62.368;25.902;2023-08-30T09:19:46;0.90;;;0.00;;
14984;SDS011;7588;62.368;25.902;2023-08-30T09:22:11;0.43;;;0.28;;
14984;SDS011;7588;62.368;25.902;2023-08-30T09:24:40;0.98;;;0.10;;
14984;SDS011;7588;62.368;25.902;2023-08-30T09:27:06;0.20;;;0.00;;
14984;SDS011;7588;62.368;25.902;2023-08-30T09:29:31;1.05;;;0.10;;
14984;SDS011;7588;62.368;25.902;2023-08-30T09:31:57;0.20;;;0.00;;
14984;SDS011;7588;62.368;25.902;2023-08-30T09:34:23;0.30;;;0.10;;
14984;SDS011;7588;62.368;25.902;2023-08-30T09:36:52;0.05;;;0.00;;
14984;SDS011;7588;62.368;25.902;2023-08-30T09:39:18;1.15;;;0.85;;
14984;SDS011;7588;62.368;25.902;2023-08-30T09:41:44;0.20;;;0.00;;
14984;SDS011;7588;62.368;25.902;2023-08-30T09:44:14;0.75;;;0.00;;
14984;SDS011;7588;62.368;25.902;2023-08-30T09:46:42;0.70;;;0.00;;
14984;SDS011;7588;62.368;25.902;2023-08-30T09:49:14;0.20;;;0.00;;
14984;SDS011;7588;62.368;25.902;2023-08-30T09:51:40;0.22;;;0.05;;
14984;SDS011;7588;62.368;25.902;2023-08-30T09:54:09;0.17;;;0.05;;
14984;SDS011;7588;62.368;25.902;2023-08-30T09:56:40;0.45;;;0.00;;
14984;SDS011;7588;62.368;25.902;2023-08-30T09:59:06;0.52;;;0.00;;
14984;SDS011;7588;62.368;25.902;2023-08-30T10:01:32;0.05;;;0.00;;
14984;SDS011;7588;62.368;25.902;2023-08-30T10:03:58;0.65;;;0.00;;
14984;SDS011;7588;62.368;25.902;2023-08-30T10:06:26;0.55;;;0.00;;
14984;SDS011;7588;62.368;25.902;2023-08-30T10:08:52;0.10;;;0.08;;
14984;SDS011;7588;62.368;25.902;2023-08-30T10:11:19;0.13;;;0.00;;
14984;SDS011;7588;62.368;25.902;2023-08-30T10:13:45;0.20;;;0.15;;
14984;SDS011;7588;62.368;25.902;2023-08-30T10:16:14;0.10;;;0.00;;
14984;SDS011;7588;62.368;25.902;2023-08-30T10:18:46;0.47;;;0.10;;
14984;SDS011;7588;62.368;25.902;2023-08-30T10:21:12;0.52;;;0.47;;
14984;SDS011;7588;62.368;25.902;2023-08-30T10:23:39;0.10;;;0.10;;
14984;SDS011;7588;62.368;25.902;2023-08-30T10:26:04;0.10;;;0.00;;
14984;SDS011;7588;62.368;25.902;2023-08-30T10:28:31;0.20;;;0.10;;
14984;SDS011;7588;62.368;25.902;2023-08-30T10:30:57;0.30;;;0.20;;
14984;SDS011;7588;62.368;25.902;2023-08-30T10:33:23;0.20;;;0.00;;
14984;SDS011;7588;62.368;25.902;2023-08-30T10:35:51;0.30;;;0.22;;
14984;SDS011;7588;62.368;25.902;2023-08-30T10:38:26;0.28;;;0.00;;
14984;SDS011;7588;62.368;25.902;2023-08-30T10:40:55;0.82;;;0.00;;
14984;SDS011;7588;62.368;25.902;2023-08-30T10:43:30;0.30;;;0.00;;
14984;SDS011;7588;62.368;25.902;2023-08-30T10:45:59;0.25;;;0.05;;
14984;SDS011;7588;62.368;25.902;2023-08-30T10:48:37;0.10;;;0.10;;
14984;SDS011;7588;62.368;25.902;2023-08-30T10:51:05;0.35;;;0.00;;
14984;SDS011;7588;62.368;25.902;2023-08-30T10:53:36;0.10;;;0.00;;
14984;SDS011;7588;62.368;25.902;2023-08-30T10:56:10;0.10;;;0.00;;
14984;SDS011;7588;62.368;25.902;2023-08-30T10:58:43;0.20;;;0.00;;
14984;SDS011;7588;62.368;25.902;2023-08-30T11:01:09;0.10;;;0.00;;
14984;SDS011;7588;62.368;25.902;2023-08-30T11:03:38;0.10;;;0.00;;
14984;SDS011;7588;62.368;25.902;2023-08-30T11:06:04;0.20;;;0.10;;
14984;SDS011;7588;62.368;25.902;2023-08-30T11:08:29;0.25;;;0.00;;
14984;SDS011;7588;62.368;25.902;2023-08-30T11:11:02;0.30;;;0.00;;
14984;SDS011;7588;62.368;25.902;2023-08-30T11:13:29;0.30;;;0.00;;
14984;SDS011;7588;62.368;25.902;2023-08-30T11:15:54;0.45;;;0.10;;
14984;SDS011;7588;62.368;25.902;2023-08-30T11:18:25;0.20;;;0.00;;
14984;SDS011;7588;62.368;25.902;2023-08-30T11:20:58;0.10;;;0.00;;
14984;SDS011;7588;62.368;25.902;2023-08-30T11:23:25;0.35;;;0.00;;
14984;SDS011;7588;62.368;25.902;2023-08-30T11:25:50;0.05;;;0.00;;
14984;SDS011;7588;62.368;25.902;2023-08-30T11:28:21;0.30;;;0.05;;
14984;SDS011;7588;62.368;25.902;2023-08-30T11:30:47;0.10;;;0.00;;
14984;SDS011;7588;62.368;25.902;2023-08-30T11:33:13;0.15;;;0.00;;
14984;SDS011;7588;62.368;25.902;2023-08-30T11:35:38;0.85;;;0.32;;
14984;SDS011;7588;62.368;25.902;2023-08-30T11:38:04;0.00;;;0.00;;
14984;SDS011;7588;62.368;25.902;2023-08-30T11:40:29;0.25;;;0.10;;
14984;SDS011;7588;62.368;25.902;2023-08-30T11:42:57;0.50;;;0.00;;
14984;SDS011;7588;62.368;25.902;2023-08-30T11:45:23;0.20;;;0.00;;
14984;SDS011;7588;62.368;25.902;2023-08-30T11:47:48;0.60;;;0.00;;
14984;SDS011;7588;62.368;25.902;2023-08-30T11:50:14;0.82;;;0.00;;
14984;SDS011;7588;62.368;25.902;2023-08-30T11:52:39;0.70;;;0.00;;
14984;SDS011;7588;62.368;25.902;2023-08-30T11:55:05;1.00;;;0.00;;
14984;SDS011;7588;62.368;25.902;2023-08-30T11:57:38;0.10;;;0.00;;
14984;SDS011;7588;62.368;25.902;2023-08-30T12:00:09;0.50;;;0.00;;
14984;SDS011;7588;62.368;25.902;2023-08-30T12:02:35;0.10;;;0.00;;
14984;SDS011;7588;62.368;25.902;2023-08-30T12:05:01;0.40;;;0.40;;
14984;SDS011;7588;62.368;25.902;2023-08-30T12:07:26;0.20;;;0.05;;
14984;SDS011;7588;62.368;25.902;2023-08-30T12:09:52;0.10;;;0.10;;
14984;SDS011;7588;62.368;25.902;2023-08-30T12:12:18;0.10;;;0.00;;
14984;SDS011;7588;62.368;25.902;2023-08-30T12:14:44;0.32;;;0.00;;
14984;SDS011;7588;62.368;25.902;2023-08-30T12:17:09;0.10;;;0.00;;
14984;SDS011;7588;62.368;25.902;2023-08-30T12:19:37;0.20;;;0.03;;
14984;SDS011;7588;62.368;25.902;2023-08-30T12:22:08;0.10;;;0.10;;
14984;SDS011;7588;62.368;25.902;2023-08-30T12:24:43;0.13;;;0.00;;
14984;SDS011;7588;62.368;25.902;2023-08-30T12:27:10;0.22;;;0.00;;
14984;SDS011;7588;62.368;25.902;2023-08-30T12:29:35;0.30;;;0.00;;
14984;SDS011;7588;62.368;25.902;2023-08-30T12:32:01;0.52;;;0.03;;
14984;SDS011;7588;62.368;25.902;2023-08-30T12:34:26;0.15;;;0.15;;
14984;SDS011;7588;62.368;25.902;2023-08-30T12:36:52;0.10;;;0.00;;
14984;SDS011;7588;62.368;25.902;2023-08-30T12:39:17;0.10;;;0.00;;
14984;SDS011;7588;62.368;25.902;2023-08-30T12:41:42;0.10;;;0.00;;
14984;SDS011;7588;62.368;25.902;2023-08-30T12:44:08;0.10;;;0.00;;
14984;SDS011;7588;62.368;25.902;2023-08-30T12:46:33;0.10;;;0.00;;
14984;SDS011;7588;62.368;25.902;2023-08-30T12:48:59;0.10;;;0.00;;
14984;SDS011;7588;62.368;25.902;2023-08-30T12:51:24;0.10;;;0.10;;
14984;SDS011;7588;62.368;25.902;2023-08-30T12:53:50;0.22;;;0.00;;
14984;SDS011;7588;62.368;25.902;2023-08-30T12:56:15;0.13;;;0.13;;
14984;SDS011;7588;62.368;25.902;2023-08-30T12:58:40;0.10;;;0.00;;
14984;SDS011;7588;62.368;25.902;2023-08-30T13:01:06;0.10;;;0.00;;
14984;SDS011;7588;62.368;25.902;2023-08-30T13:03:31;0.20;;;0.00;;
14984;SDS011;7588;62.368;25.902;2023-08-30T13:05:56;0.15;;;0.00;;
14984;SDS011;7588;62.368;25.902;2023-08-30T13:08:23;0.40;;;0.00;;
14984;SDS011;7588;62.368;25.902;2023-08-30T13:10:49;0.38;;;0.00;;
14984;SDS011;7588;62.368;25.902;2023-08-30T13:13:14;0.20;;;0.10;;
14984;SDS011;7588;62.368;25.902;2023-08-30T13:15:40;0.10;;;0.00;;
14984;SDS011;7588;62.368;25.902;2023-08-30T13:18:06;0.20;;;0.10;;
14984;SDS011;7588;62.368;25.902;2023-08-30T13:20:31;0.30;;;0.10;;
14984;SDS011;7588;62.368;25.902;2023-08-30T13:22:56;0.03;;;0.00;;
14984;SDS011;7588;62.368;25.902;2023-08-30T13:25:22;0.10;;;0.00;;
14984;SDS011;7588;62.368;25.902;2023-08-30T13:27:47;0.10;;;0.05;;
14984;SDS011;7588;62.368;25.902;2023-08-30T13:30:13;0.10;;;0.00;;
14984;SDS011;7588;62.368;25.902;2023-08-30T13:32:39;0.10;;;0.00;;
14984;SDS011;7588;62.368;25.902;2023-08-30T13:35:04;0.10;;;0.00;;
14984;SDS011;7588;62.368;25.902;2023-08-30T13:37:30;0.10;;;0.00;;
14984;SDS011;7588;62.368;25.902;2023-08-30T13:39:55;0.05;;;0.03;;
14984;SDS011;7588;62.368;25.902;2023-08-30T13:42:21;0.10;;;0.00;;
14984;SDS011;7588;62.368;25.902;2023-08-30T13:44:46;0.20;;;0.10;;
14984;SDS011;7588;62.368;25.902;2023-08-30T13:47:15;0.30;;;0.10;;
14984;SDS011;7588;62.368;25.902;2023-08-30T13:49:41;0.10;;;0.10;;
14984;SDS011;7588;62.368;25.902;2023-08-30T13:52:07;0.10;;;0.08;;
14984;SDS011;7588;62.368;25.902;2023-08-30T13:54:32;0.10;;;0.00;;
14984;SDS011;7588;62.368;25.902;2023-08-30T13:56:58;0.20;;;0.00;;
14984;SDS011;7588;62.368;25.902;2023-08-30T13:59:23;0.30;;;0.00;;
14984;SDS011;7588;62.368;25.902;2023-08-30T14:01:49;0.55;;;0.55;;
14984;SDS011;7588;62.368;25.902;2023-08-30T14:04:14;0.03;;;0.00;;
14984;SDS011;7588;62.368;25.902;2023-08-30T14:06:40;0.10;;;0.00;;
14984;SDS011;7588;62.368;25.902;2023-08-30T14:09:05;0.20;;;0.00;;
14984;SDS011;7588;62.368;25.902;2023-08-30T14:11:33;0.10;;;0.00;;
14984;SDS011;7588;62.368;25.902;2023-08-30T14:14:03;0.20;;;0.03;;
14984;SDS011;7588;62.368;25.902;2023-08-30T14:16:28;0.20;;;0.00;;
14984;SDS011;7588;62.368;25.902;2023-08-30T14:18:53;0.10;;;0.10;;
14984;SDS011;7588;62.368;25.902;2023-08-30T14:21:19;0.10;;;0.00;;
14984;SDS011;7588;62.368;25.902;2023-08-30T14:23:45;0.30;;;0.00;;
14984;SDS011;7588;62.368;25.902;2023-08-30T14:26:10;0.10;;;0.00;;
14984;SDS011;7588;62.368;25.902;2023-08-30T14:28:37;0.30;;;0.20;;
14984;SDS011;7588;62.368;25.902;2023-08-30T14:31:06;0.20;;;0.00;;
14984;SDS011;7588;62.368;25.902;2023-08-30T14:33:32;0.80;;;0.15;;
14984;SDS011;7588;62.368;25.902;2023-08-30T14:35:58;0.30;;;0.03;;
14984;SDS011;7588;62.368;25.902;2023-08-30T14:38:23;0.10;;;0.00;;
14984;SDS011;7588;62.368;25.902;2023-08-30T14:43:21;0.38;;;0.10;;
14984;SDS011;7588;62.368;25.902;2023-08-30T14:45:46;0.20;;;0.00;;
14984;SDS011;7588;62.368;25.902;2023-08-30T14:48:12;0.20;;;0.05;;
14984;SDS011;7588;62.368;25.902;2023-08-30T14:50:37;0.70;;;0.10;;